Time;durP1;ratioP1;P1;durP2;ratioP2;P2;SDS_P1;SDS_P2;PMS_P1;PMS_P2;Temp;Humidity;BMP_temperature;BMP_pressure;BME280_temperature;BME280_humidity;BME280_pressure;Samples;Min_cycle;Max_cycle;Signal;HPM_P1;HPM_P2
2022/05/29 00:01:19;;;;;;;;;;;;;;;6.39;100.00;98566.69;5154305;27;19930;-59
2022/05/29 00:03:45;;;;;;;;;;;;;;;6.34;100.00;98569.69;5154139;27;19923;-59
2022/05/29 00:06:12;;;;;;;;;;;;;;;6.25;100.00;98571.78;5154641;27;19922;-59
2022/05/29 00:08:39;;;;;;;;;;;;;;;6.23;100.00;98574.84;5153879;27;19929;-59
2022/05/29 00:11:07;;;;;;;;;;;;;;;6.19;100.00;98560.34;5154325;27;19931;-59
2022/05/29 00:13:33;;;;;;;;;;;;;;;6.15;100.00;98564.13;5154011;27;19945;-59
2022/05/29 00:15:59;;;;;;;;;;;;;;;6.03;100.00;98570.41;5153906;27;20393;-59
2022/05/29 00:18:25;;;;;;;;;;;;;;;6.01;100.00;98567.28;5153872;27;19923;-59
2022/05/29 00:20:53;;;;;;;;;;;;;;;5.92;100.00;98567.41;5154169;27;19972;-59
2022/05/29 00:23:19;;;;;;;;;;;;;;;5.93;100.00;98558.16;5153816;27;19926;-59
2022/05/29 00:25:47;;;;;;;;;;;;;;;5.84;100.00;98552.81;5154034;27;19930;-59
2022/05/29 00:28:13;;;;;;;;;;;;;;;5.86;100.00;98552.47;5153689;27;19930;-59
2022/05/29 00:30:40;;;;;;;;;;;;;;;5.80;100.00;98556.59;5153806;27;20393;-59
2022/05/29 00:33:06;;;;;;;;;;;;;;;5.72;100.00;98558.31;5153336;27;19946;-59
2022/05/29 00:35:32;;;;;;;;;;;;;;;5.68;100.00;98545.75;5153603;27;20045;-58
2022/05/29 00:37:59;;;;;;;;;;;;;;;5.67;100.00;98550.41;5153608;27;19950;-59
2022/05/29 00:40:30;;;;;;;;;;;;;;;5.64;100.00;98546.47;5153766;27;20021;-59
2022/05/29 00:42:56;;;;;;;;;;;;;;;5.62;100.00;98537.06;5153590;27;19937;-59
2022/05/29 00:45:23;;;;;;;;;;;;;;;5.58;100.00;98526.09;5153498;27;19923;-59
2022/05/29 00:47:49;;;;;;;;;;;;;;;5.56;100.00;98533.00;5153584;27;19930;-59
2022/05/29 00:50:17;;;;;;;;;;;;;;;5.53;100.00;98529.06;5153338;27;19923;-59
2022/05/29 00:52:43;;;;;;;;;;;;;;;5.50;100.00;98527.03;5153690;27;19923;-59
2022/05/29 00:55:12;;;;;;;;;;;;;;;5.50;100.00;98526.22;5153272;27;20347;-59
2022/05/29 00:57:40;;;;;;;;;;;;;;;5.48;100.00;98518.44;5153393;27;19923;-59
2022/05/29 01:00:08;;;;;;;;;;;;;;;5.48;100.00;98514.94;5153253;27;19923;-59
2022/05/29 01:02:34;;;;;;;;;;;;;;;5.48;100.00;98507.56;5153078;27;19923;-59
2022/05/29 01:05:03;;;;;;;;;;;;;;;5.43;100.00;98507.78;5153195;27;19923;-59
2022/05/29 01:07:29;;;;;;;;;;;;;;;5.44;100.00;98506.69;5153231;27;19923;-59
2022/05/29 01:09:55;;;;;;;;;;;;;;;5.41;100.00;98504.66;5152992;27;19930;-59
2022/05/29 01:12:30;;;;;;;;;;;;;;;5.41;100.00;98493.78;5152940;27;19923;-59
2022/05/29 01:14:58;;;;;;;;;;;;;;;5.36;100.00;98492.06;5153317;27;20381;-59
2022/05/29 01:17:30;;;;;;;;;;;;;;;5.33;100.00;98483.81;5152951;27;19923;-59
2022/05/29 01:20:02;;;;;;;;;;;;;;;5.33;100.00;98481.09;5153275;27;19934;-59
2022/05/29 01:22:49;;;;;;;;;;;;;;;5.31;100.00;98486.13;5152982;27;19952;-59
2022/05/29 01:25:32;;;;;;;;;;;;;;;5.16;100.00;98477.56;5109612;27;19923;-59
2022/05/29 01:28:19;;;;;;;;;;;;;;;5.27;100.00;98466.22;5152656;27;19931;-59
2022/05/29 01:30:47;;;;;;;;;;;;;;;5.30;100.00;98462.78;5144401;27;19923;-59
2022/05/29 01:33:21;;;;;;;;;;;;;;;5.34;100.00;98460.97;5153031;27;19923;-59
2022/05/29 01:35:53;;;;;;;;;;;;;;;5.35;100.00;98459.81;5152553;27;19935;-59
2022/05/29 01:38:22;;;;;;;;;;;;;;;5.31;100.00;98467.09;5152626;27;20301;-59
2022/05/29 01:40:50;;;;;;;;;;;;;;;5.28;100.00;98465.06;5152863;27;19923;-59
2022/05/29 01:43:19;;;;;;;;;;;;;;;5.29;100.00;98464.72;5152667;27;20305;-59
2022/05/29 01:45:55;;;;;;;;;;;;;;;5.26;100.00;98449.09;5151793;27;19923;-58
2022/05/29 01:48:26;;;;;;;;;;;;;;;5.09;100.00;98457.53;5152447;27;19930;-59
2022/05/29 01:50:55;;;;;;;;;;;;;;;5.19;100.00;98451.63;5152674;27;19923;-59
2022/05/29 01:53:26;;;;;;;;;;;;;;;5.19;100.00;98446.19;5152477;27;19923;-59
2022/05/29 01:55:55;;;;;;;;;;;;;;;5.26;100.00;98440.94;5152549;27;19978;-59
2022/05/29 01:58:24;;;;;;;;;;;;;;;5.27;100.00;98439.03;5152254;27;19922;-59
2022/05/29 02:00:53;;;;;;;;;;;;;;;5.21;100.00;98438.47;5152352;27;19923;-59
2022/05/29 02:03:21;;;;;;;;;;;;;;;5.32;100.00;98434.13;5152450;27;20452;-59
2022/05/29 02:05:50;;;;;;;;;;;;;;;5.34;100.00;98436.50;5152378;27;19930;-59
2022/05/29 02:08:19;;;;;;;;;;;;;;;5.37;100.00;98443.97;5152058;27;20013;-59
2022/05/29 02:10:47;;;;;;;;;;;;;;;5.27;100.00;98444.47;5152314;27;19923;-59
2022/05/29 02:13:18;;;;;;;;;;;;;;;5.36;100.00;98442.38;5152531;27;19923;-59
2022/05/29 02:15:46;;;;;;;;;;;;;;;5.37;100.00;98444.75;5152033;27;19923;-59
2022/05/29 02:18:17;;;;;;;;;;;;;;;5.38;100.00;98440.88;5152440;27;19930;-59
2022/05/29 02:20:45;;;;;;;;;;;;;;;5.45;100.00;98445.72;5152265;27;20298;-59
2022/05/29 02:23:20;;;;;;;;;;;;;;;5.56;100.00;98444.06;5151926;27;19930;-59
2022/05/29 02:25:48;;;;;;;;;;;;;;;5.70;100.00;98443.66;5152060;27;19934;-59
2022/05/29 02:28:16;;;;;;;;;;;;;;;5.69;100.00;98446.72;5151757;27;19923;-59
2022/05/29 02:30:45;;;;;;;;;;;;;;;5.84;100.00;98454.91;5151789;27;19923;-59
2022/05/29 02:33:13;;;;;;;;;;;;;;;6.07;100.00;98452.38;5151805;27;19930;-59
2022/05/29 02:35:42;;;;;;;;;;;;;;;6.75;100.00;98453.91;5151668;27;19923;-59
2022/05/29 02:38:13;;;;;;;;;;;;;;;6.55;100.00;98483.03;5151751;27;19923;-59
2022/05/29 02:40:45;;;;;;;;;;;;;;;6.56;100.00;98502.88;5152071;27;19923;-59
2022/05/29 02:43:18;;;;;;;;;;;;;;;6.69;100.00;98515.25;5151495;27;19923;-59
2022/05/29 02:45:46;;;;;;;;;;;;;;;7.23;100.00;98530.03;5151685;27;19927;-60
2022/05/29 02:48:16;;;;;;;;;;;;;;;7.80;100.00;98563.94;5151760;27;19931;-60
2022/05/29 02:50:47;;;;;;;;;;;;;;;8.52;100.00;98617.91;5151941;27;19923;-60
2022/05/29 02:53:13;;;;;;;;;;;;;;;7.94;100.00;98708.06;5151526;27;19926;-59
2022/05/29 02:55:40;;;;;;;;;;;;;;;8.13;100.00;98748.22;5151925;27;19927;-60
2022/05/29 02:58:09;;;;;;;;;;;;;;;8.42;100.00;98780.44;5155341;27;19950;-60
2022/05/29 03:00:39;;;;;;;;;;;;;;;8.65;100.00;98812.53;5155309;27;20014;-60
2022/05/29 03:03:09;;;;;;;;;;;;;;;8.43;100.00;98849.53;5155163;27;19972;-60
2022/05/29 03:05:51;;;;;;;;;;;;;;;8.16;100.00;98863.00;5155012;27;19930;-60
2022/05/29 03:08:31;;;;;;;;;;;;;;;8.20;100.00;98868.53;5155051;27;19923;-60
2022/05/29 03:11:02;;;;;;;;;;;;;;;8.09;100.00;98875.69;5155045;27;19923;-60
2022/05/29 03:13:33;;;;;;;;;;;;;;;7.96;100.00;98878.53;5155087;27;19923;-60
2022/05/29 03:16:04;;;;;;;;;;;;;;;8.06;100.00;98877.16;5154779;27;20393;-60
2022/05/29 03:18:39;;;;;;;;;;;;;;;7.97;100.00;98877.38;5155079;27;19930;-60
2022/05/29 03:21:09;;;;;;;;;;;;;;;8.12;100.00;98867.56;5154701;27;19923;-60
2022/05/29 03:23:41;;;;;;;;;;;;;;;8.00;100.00;98873.16;5154896;27;19946;-60
2022/05/29 03:26:10;;;;;;;;;;;;;;;7.99;100.00;98866.88;5154769;27;20406;-60
2022/05/29 03:28:45;;;;;;;;;;;;;;;8.05;100.00;98872.06;5154639;27;20399;-60
2022/05/29 03:31:14;;;;;;;;;;;;;;;8.16;100.00;98859.44;5155074;27;20012;-60
2022/05/29 03:33:40;;;;;;;;;;;;;;;8.18;100.00;98859.91;5154641;27;19923;-60
2022/05/29 03:36:07;;;;;;;;;;;;;;;8.24;100.00;98856.53;5154640;27;19976;-60
2022/05/29 03:38:33;;;;;;;;;;;;;;;8.05;100.00;98853.75;5154799;27;19930;-60
2022/05/29 03:41:02;;;;;;;;;;;;;;;8.18;100.00;98854.44;5154643;27;19923;-60
2022/05/29 03:43:28;;;;;;;;;;;;;;;8.34;100.00;98854.41;5154780;27;19930;-60
2022/05/29 03:45:54;;;;;;;;;;;;;;;8.09;100.00;98862.81;5154431;27;19996;-60
2022/05/29 03:48:20;;;;;;;;;;;;;;;8.41;100.00;98863.56;5155023;27;20060;-60
2022/05/29 03:50:46;;;;;;;;;;;;;;;8.32;100.00;98870.34;5154625;27;19927;-60
2022/05/29 03:53:12;;;;;;;;;;;;;;;8.15;100.00;98888.69;5154541;27;19923;-60
2022/05/29 03:55:38;;;;;;;;;;;;;;;8.01;100.00;98870.06;5154379;27;19977;-60
2022/05/29 03:58:05;;;;;;;;;;;;;;;8.16;100.00;98863.00;5154263;27;20396;-59
2022/05/29 04:00:31;;;;;;;;;;;;;;;8.29;100.00;98873.78;5154080;27;20454;-60
2022/05/29 04:02:57;;;;;;;;;;;;;;;8.54;100.00;98890.75;5154378;27;19927;-60
2022/05/29 04:05:24;;;;;;;;;;;;;;;8.28;100.00;98889.38;5154434;27;19922;-60
2022/05/29 04:13:20;;;;;;;;;;;;;;;8.43;100.00;98913.19;5154083;27;19930;-60
2022/05/29 04:15:46;;;;;;;;;;;;;;;8.61;100.00;98899.09;5154056;27;19927;-60
2022/05/29 04:18:12;;;;;;;;;;;;;;;8.65;100.00;98917.16;5154067;27;20059;-60
2022/05/29 04:20:38;;;;;;;;;;;;;;;8.75;100.00;98923.22;5153802;27;19923;-60
2022/05/29 04:23:04;;;;;;;;;;;;;;;8.56;100.00;98941.16;5154112;27;19929;-60
2022/05/29 04:25:30;;;;;;;;;;;;;;;8.76;100.00;98936.50;5154008;27;20297;-60
2022/05/29 04:27:56;;;;;;;;;;;;;;;8.92;100.00;98948.16;5153858;27;19950;-61
2022/05/29 04:30:23;;;;;;;;;;;;;;;8.97;100.00;98949.06;5153628;27;20390;-60
2022/05/29 04:33:01;;;;;;;;;;;;;;;8.98;100.00;98961.56;5154047;27;20381;-60
2022/05/29 04:35:27;;;;;;;;;;;;;;;9.14;100.00;98974.03;5153587;27;19975;-60
2022/05/29 04:37:53;;;;;;;;;;;;;;;9.01;100.00;98977.25;5153950;27;19934;-60
2022/05/29 04:40:19;;;;;;;;;;;;;;;9.17;100.00;98983.47;5153536;27;19923;-60
2022/05/29 04:42:45;;;;;;;;;;;;;;;9.37;100.00;98995.19;5153593;27;19976;-59
2022/05/29 04:45:11;;;;;;;;;;;;;;;9.33;100.00;98984.19;5153527;27;20370;-60
2022/05/29 04:47:38;;;;;;;;;;;;;;;9.36;100.00;98988.94;5153435;27;19923;-60
2022/05/29 04:50:04;;;;;;;;;;;;;;;9.33;100.00;98991.56;5153507;27;19949;-60
2022/05/29 04:52:30;;;;;;;;;;;;;;;9.04;100.00;98999.22;5153525;27;19923;-60
2022/05/29 04:54:56;;;;;;;;;;;;;;;8.93;100.00;98996.25;5153474;27;19927;-60
2022/05/29 04:57:22;;;;;;;;;;;;;;;8.59;100.00;99011.47;5153358;27;19926;-59
2022/05/29 04:59:48;;;;;;;;;;;;;;;7.84;100.00;99017.03;5153646;27;19923;-59
2022/05/29 05:02:14;;;;;;;;;;;;;;;8.33;100.00;98995.63;5153100;27;20003;-59
2022/05/29 05:04:41;;;;;;;;;;;;;;;8.32;100.00;99004.97;5153553;27;19929;-59
2022/05/29 05:07:07;;;;;;;;;;;;;;;8.54;100.00;98998.09;5153096;27;19922;-59
2022/05/29 05:09:33;;;;;;;;;;;;;;;8.55;100.00;98996.16;5153388;27;19975;-59
2022/05/29 05:11:59;;;;;;;;;;;;;;;8.56;100.00;99001.25;5153177;27;20393;-59
2022/05/29 05:14:25;;;;;;;;;;;;;;;8.66;100.00;99002.66;5153302;27;19986;-59
2022/05/29 05:16:53;;;;;;;;;;;;;;;8.92;100.00;99016.53;5152942;27;19927;-60
2022/05/29 05:19:19;;;;;;;;;;;;;;;8.92;100.00;99016.53;5153403;27;20373;-59
2022/05/29 05:21:46;;;;;;;;;;;;;;;8.96;100.00;99013.88;5153193;27;19967;-59
2022/05/29 05:24:12;;;;;;;;;;;;;;;9.03;100.00;99014.03;5153196;27;19945;-59
2022/05/29 05:26:38;;;;;;;;;;;;;;;9.49;100.00;99018.84;5153048;27;20378;-59
2022/05/29 05:29:04;;;;;;;;;;;;;;;9.40;100.00;99019.88;5152785;27;19923;-60
2022/05/29 05:31:30;;;;;;;;;;;;;;;9.07;100.00;99020.38;5153105;27;19930;-59
2022/05/29 05:33:55;;;;;;;;;;;;;;;9.21;100.00;99024.56;5152678;27;19923;-59
2022/05/29 05:36:21;;;;;;;;;;;;;;;9.73;100.00;99021.31;5152891;27;19923;-59
2022/05/29 05:38:48;;;;;;;;;;;;;;;9.96;100.00;99026.00;5152390;27;20419;-60
2022/05/29 05:41:16;;;;;;;;;;;;;;;9.97;100.00;99013.91;5152511;27;19923;-60
2022/05/29 05:43:42;;;;;;;;;;;;;;;10.26;100.00;98988.63;5152598;27;19971;-60
2022/05/29 05:46:08;;;;;;;;;;;;;;;10.30;100.00;98958.53;5152496;27;19930;-60
2022/05/29 05:48:34;;;;;;;;;;;;;;;10.09;100.00;98943.28;5152325;27;19923;-60
2022/05/29 05:51:00;;;;;;;;;;;;;;;10.16;100.00;98953.56;5152634;27;19954;-60
2022/05/29 05:53:26;;;;;;;;;;;;;;;10.33;100.00;98949.56;5152670;27;19934;-60
2022/05/29 05:55:53;;;;;;;;;;;;;;;10.51;100.00;98933.38;5152495;27;20381;-60
2022/05/29 05:58:19;;;;;;;;;;;;;;;10.03;100.00;98890.00;5152706;27;20339;-60
2022/05/29 06:00:45;;;;;;;;;;;;;;;11.28;100.00;98871.63;5152252;27;20450;-60
2022/05/29 06:03:11;;;;;;;;;;;;;;;11.70;100.00;98706.50;5152492;27;20294;-60
2022/05/29 06:05:37;;;;;;;;;;;;;;;11.90;100.00;98497.50;5152195;27;19923;-60
2022/05/29 06:08:04;;;;;;;;;;;;;;;13.18;100.00;98343.25;5152368;27;19922;-60
2022/05/29 06:10:29;;;;;;;;;;;;;;;14.04;100.00;97943.06;5152017;27;19923;-60
2022/05/29 06:13:00;;;;;;;;;;;;;;;15.41;100.00;97663.25;5152237;27;20005;-60
2022/05/29 06:15:27;;;;;;;;;;;;;;;15.74;100.00;97544.44;5152098;27;19927;-60
2022/05/29 06:17:53;;;;;;;;;;;;;;;15.72;100.00;97541.31;5152082;27;19923;-60
2022/05/29 06:20:19;;;;;;;;;;;;;;;15.64;100.00;97531.66;5152177;27;19929;-61
2022/05/29 06:22:45;;;;;;;;;;;;;;;15.36;100.00;97547.03;5152029;27;20013;-61
2022/05/29 06:25:11;;;;;;;;;;;;;;;14.71;100.00;97570.00;5152332;27;19923;-60
2022/05/29 06:27:37;;;;;;;;;;;;;;;14.24;100.00;97630.91;5151913;27;20309;-61
2022/05/29 06:30:05;;;;;;;;;;;;;;;13.28;100.00;97727.13;5152214;27;19929;-60
2022/05/29 06:32:30;;;;;;;;;;;;;;;12.94;100.00;97830.56;5151255;27;19923;-60
2022/05/29 06:34:57;;;;;;;;;;;;;;;12.67;100.00;97951.47;5151972;27;19927;-61
2022/05/29 06:37:23;;;;;;;;;;;;;;;12.68;100.00;98046.53;5152035;27;19934;-60
2022/05/29 06:39:49;;;;;;;;;;;;;;;12.75;100.00;98077.91;5152173;27;20320;-60
2022/05/29 06:42:15;;;;;;;;;;;;;;;12.69;100.00;98019.81;5151858;27;19922;-60
2022/05/29 06:44:41;;;;;;;;;;;;;;;12.98;100.00;98025.81;5151969;27;19924;-60
2022/05/29 06:47:09;;;;;;;;;;;;;;;13.42;100.00;98032.44;5151661;27;19923;-60
2022/05/29 06:49:35;;;;;;;;;;;;;;;14.72;100.00;97881.25;5151953;27;19954;-60
2022/05/29 06:52:04;;;;;;;;;;;;;;;16.15;100.00;97661.69;5151899;27;19945;-60
2022/05/29 06:54:30;;;;;;;;;;;;;;;17.42;100.00;97561.22;5151743;27;19930;-61
2022/05/29 06:56:56;;;;;;;;;;;;;;;18.09;100.00;97582.97;5151775;27;20017;-61
2022/05/29 06:59:22;;;;;;;;;;;;;;;18.54;100.00;97698.16;5151315;27;20301;-60
2022/05/29 07:07:16;;;;;;;;;;;;;;;16.35;100.00;97639.38;5119366;27;20038;-60
2022/05/29 07:09:42;;;;;;;;;;;;;;;16.47;100.00;97595.16;5151383;27;19922;-61
2022/05/29 07:12:09;;;;;;;;;;;;;;;15.39;100.00;97613.19;5151377;27;20351;-61
2022/05/29 07:14:37;;;;;;;;;;;;;;;14.09;100.00;97591.84;5151475;27;19926;-61
2022/05/29 07:17:03;;;;;;;;;;;;;;;13.99;100.00;97599.13;5151214;27;19923;-61
2022/05/29 07:19:29;;;;;;;;;;;;;;;14.43;100.00;97610.78;5151263;27;19923;-61
2022/05/29 07:21:57;;;;;;;;;;;;;;;13.75;100.00;97616.94;5151049;27;20283;-60
2022/05/29 07:24:23;;;;;;;;;;;;;;;13.41;100.00;97697.81;5151577;27;19927;-60
2022/05/29 07:26:49;;;;;;;;;;;;;;;13.06;100.00;97677.91;5151108;27;19923;-61
2022/05/29 07:29:17;;;;;;;;;;;;;;;14.04;100.00;97733.66;5151274;27;19930;-61
2022/05/29 07:31:43;;;;;;;;;;;;;;;14.54;100.00;97649.19;5151160;27;19922;-61
2022/05/29 07:34:09;;;;;;;;;;;;;;;15.09;100.00;97619.88;5151103;27;19923;-61
2022/05/29 07:36:35;;;;;;;;;;;;;;;15.82;100.00;97605.78;5151086;27;20292;-60
2022/05/29 07:39:02;;;;;;;;;;;;;;;15.50;100.00;97601.88;5151217;27;19923;-60
2022/05/29 07:44:17;;;;;;;;;;;;;;;15.99;100.00;97610.00;5094910;27;19924;-61
2022/05/29 07:46:43;;;;;;;;;;;;;;;14.93;100.00;97634.50;5154418;27;19922;-61
2022/05/29 07:49:09;;;;;;;;;;;;;;;15.16;100.00;97618.94;5154315;27;19971;-60
2022/05/29 07:51:35;;;;;;;;;;;;;;;15.59;100.00;97624.13;5154954;27;20417;-60
2022/05/29 07:54:01;;;;;;;;;;;;;;;15.20;100.00;97617.66;5154603;27;19930;-60
2022/05/29 07:56:27;;;;;;;;;;;;;;;14.84;100.00;97620.50;5154536;27;19927;-61
2022/05/29 07:58:54;;;;;;;;;;;;;;;14.05;100.00;97640.75;5154266;27;19923;-61
2022/05/29 08:01:19;;;;;;;;;;;;;;;14.50;100.00;97641.00;5154600;27;19930;-60
2022/05/29 08:03:45;;;;;;;;;;;;;;;14.34;100.00;97652.72;5154309;27;20303;-60
2022/05/29 08:06:12;;;;;;;;;;;;;;;14.33;100.00;97672.47;5154167;27;19996;-60
2022/05/29 08:08:38;;;;;;;;;;;;;;;14.39;100.00;97665.22;5154195;27;19923;-60
2022/05/29 08:11:05;;;;;;;;;;;;;;;14.28;100.00;97645.38;5153974;27;19922;-61
2022/05/29 08:13:31;;;;;;;;;;;;;;;14.39;100.00;97665.22;5154041;27;19923;-61
2022/05/29 08:15:58;;;;;;;;;;;;;;;14.21;100.00;97667.59;5153871;27;19923;-60
2022/05/29 08:18:23;;;;;;;;;;;;;;;14.92;100.00;97638.44;5154467;27;19923;-60
2022/05/29 08:20:50;;;;;;;;;;;;;;;15.11;100.00;97634.03;5153562;27;19975;-60
2022/05/29 08:23:16;;;;;;;;;;;;;;;15.03;100.00;97647.25;5153307;27;19984;-61
2022/05/29 08:31:22;;;;;;;;;;;;;;;14.34;100.00;97674.00;5090068;28;19931;-60
2022/05/29 08:33:48;;;;;;;;;;;;;;;13.49;100.00;97699.22;5137894;27;19923;-60
2022/05/29 08:36:16;;;;;;;;;;;;;;;13.89;100.00;97776.44;5153808;27;19929;-60
2022/05/29 08:38:43;;;;;;;;;;;;;;;13.76;100.00;97758.94;5153592;27;19968;-60
2022/05/29 08:41:12;;;;;;;;;;;;;;;13.55;100.00;97769.13;5153508;27;20320;-60
2022/05/29 08:43:40;;;;;;;;;;;;;;;13.23;100.00;97826.63;5153656;27;19945;-60
2022/05/29 08:46:08;;;;;;;;;;;;;;;13.19;100.00;97841.22;5153873;27;19923;-60
2022/05/29 08:48:34;;;;;;;;;;;;;;;13.69;100.00;97844.44;5153372;27;20390;-60
2022/05/29 08:51:18;;;;;;;;;;;;;;;13.75;100.00;97845.53;5153438;27;19923;-60
2022/05/29 08:53:47;;;;;;;;;;;;;;;13.60;100.00;97853.25;5153247;27;19923;-60
2022/05/29 08:56:18;;;;;;;;;;;;;;;13.59;100.00;97859.94;5153184;27;20386;-60
2022/05/29 08:58:53;;;;;;;;;;;;;;;13.50;100.00;97882.50;5153531;27;20390;-60
2022/05/29 09:01:24;;;;;;;;;;;;;;;13.56;100.00;97905.63;5153200;27;19923;-59
2022/05/29 09:03:53;;;;;;;;;;;;;;;13.83;100.00;97896.56;5153172;27;19949;-60
2022/05/29 09:06:22;;;;;;;;;;;;;;;13.97;100.00;97893.59;5153229;27;19922;-60
2022/05/29 09:08:51;;;;;;;;;;;;;;;13.81;100.00;97874.16;5153020;27;19948;-60
2022/05/29 09:11:20;;;;;;;;;;;;;;;14.22;100.00;97942.00;5153274;27;19923;-60
2022/05/29 09:13:48;;;;;;;;;;;;;;;13.77;100.00;97885.25;5153181;27;19991;-60
2022/05/29 09:16:16;;;;;;;;;;;;;;;13.21;100.00;98019.69;5153453;27;19926;-60
2022/05/29 09:18:48;;;;;;;;;;;;;;;12.88;100.00;98107.25;5153187;27;19927;-60
2022/05/29 09:21:16;;;;;;;;;;;;;;;13.66;100.00;98160.00;5153351;27;19982;-60
2022/05/29 09:23:45;;;;;;;;;;;;;;;13.75;100.00;98231.16;5152843;27;19923;-60
2022/05/29 09:26:14;;;;;;;;;;;;;;;13.86;100.00;98276.69;5152970;27;19923;-60
2022/05/29 09:28:41;;;;;;;;;;;;;;;13.57;100.00;98281.69;5152796;27;19927;-59
2022/05/29 09:31:09;;;;;;;;;;;;;;;13.96;100.00;98365.97;5152819;27;19923;-60
2022/05/29 09:33:37;;;;;;;;;;;;;;;14.42;100.00;98270.97;5152980;27;20043;-60
2022/05/29 09:36:06;;;;;;;;;;;;;;;14.80;100.00;98207.47;5152894;27;19922;-60
2022/05/29 09:38:34;;;;;;;;;;;;;;;14.98;100.00;98030.56;5152533;27;19934;-60
2022/05/29 09:41:04;;;;;;;;;;;;;;;16.08;100.00;97825.78;5152539;27;19923;-60
2022/05/29 09:43:30;;;;;;;;;;;;;;;16.66;100.00;97726.19;5152927;27;19923;-60
2022/05/29 09:46:16;;;;;;;;;;;;;;;17.34;100.00;97681.81;5152605;27;19930;-60
2022/05/29 09:51:38;;;;;;;;;;;;;;;17.51;100.00;97715.66;5152870;27;20301;-60
2022/05/29 09:54:06;;;;;;;;;;;;;;;18.01;100.00;97714.00;5152630;27;19923;-61
2022/05/29 09:56:33;;;;;;;;;;;;;;;19.51;100.00;97767.41;5152790;27;20416;-60
2022/05/29 09:59:00;;;;;;;;;;;;;;;19.34;100.00;97826.50;5152627;27;19933;-60
2022/05/29 10:01:27;;;;;;;;;;;;;;;19.28;100.00;97821.53;5152596;27;19923;-61
2022/05/29 10:03:54;;;;;;;;;;;;;;;19.59;100.00;97811.59;5152410;27;19922;-60
2022/05/29 10:06:25;;;;;;;;;;;;;;;18.32;100.00;97773.09;5151727;27;19923;-60
2022/05/29 10:08:52;;;;;;;;;;;;;;;18.09;100.00;97754.09;5152079;27;19979;-61
2022/05/29 10:11:20;;;;;;;;;;;;;;;18.02;100.00;97757.91;5151974;27;19922;-60
2022/05/29 10:13:46;;;;;;;;;;;;;;;17.36;100.00;97731.97;5152082;27;19927;-60
2022/05/29 10:16:13;;;;;;;;;;;;;;;17.35;100.00;97697.19;5152000;27;19926;-60
2022/05/29 10:18:40;;;;;;;;;;;;;;;17.58;100.00;97704.34;5152156;27;19923;-61
2022/05/29 10:21:11;;;;;;;;;;;;;;;17.53;100.00;97696.63;5152012;27;19930;-61
2022/05/29 10:23:37;;;;;;;;;;;;;;;17.83;100.00;97696.00;5152264;27;19939;-60
2022/05/29 10:26:07;;;;;;;;;;;;;;;17.81;100.00;97692.13;5152093;27;19930;-60
2022/05/29 10:28:36;;;;;;;;;;;;;;;17.51;100.00;97710.13;5151918;27;19923;-60
2022/05/29 10:31:03;;;;;;;;;;;;;;;16.80;100.00;97721.47;5151690;27;19945;-60
2022/05/29 10:33:31;;;;;;;;;;;;;;;16.64;100.00;97695.41;5151720;27;19976;-60
2022/05/29 10:35:58;;;;;;;;;;;;;;;16.45;100.00;97702.69;5152026;27;19927;-60
2022/05/29 10:38:26;;;;;;;;;;;;;;;16.32;100.00;97701.09;5151767;27;20025;-60
2022/05/29 10:40:54;;;;;;;;;;;;;;;16.41;100.00;97699.25;5151643;27;19923;-60
2022/05/29 10:43:37;;;;;;;;;;;;;;;16.19;100.00;97701.06;5151743;27;19923;-60
2022/05/29 10:46:05;;;;;;;;;;;;;;;16.01;100.00;97696.03;5151682;27;19930;-60
2022/05/29 10:48:38;;;;;;;;;;;;;;;16.09;100.00;97708.44;5151632;27;19926;-60
2022/05/29 10:51:17;;;;;;;;;;;;;;;16.33;100.00;97700.69;5151724;27;19929;-60
2022/05/29 10:54:01;;;;;;;;;;;;;;;16.46;100.00;97701.47;5151540;27;20044;-60
2022/05/29 10:56:33;;;;;;;;;;;;;;;16.58;100.00;97696.41;5134107;27;19923;-61
2022/05/29 10:59:10;;;;;;;;;;;;;;;16.51;100.00;97699.38;5151589;27;19930;-60
2022/05/29 11:04:46;;;;;;;;;;;;;;;16.51;100.00;97708.47;5151988;27;19934;-60
2022/05/29 11:07:22;;;;;;;;;;;;;;;16.85;100.00;97732.75;5151339;27;20305;-60
2022/05/29 11:09:57;;;;;;;;;;;;;;;16.77;100.00;97723.13;5151425;27;19930;-60
2022/05/29 11:12:30;;;;;;;;;;;;;;;17.08;100.00;97723.34;5151519;27;19976;-60
2022/05/29 11:15:02;;;;;;;;;;;;;;;16.68;100.00;97731.28;5151399;27;20294;-60
2022/05/29 11:17:38;;;;;;;;;;;;;;;16.65;100.00;97721.09;5152845;27;19934;-60
2022/05/29 11:20:15;;;;;;;;;;;;;;;16.16;100.00;97718.53;5154804;27;19922;-60
2022/05/29 11:22:43;;;;;;;;;;;;;;;16.19;100.00;97717.66;5154892;27;19923;-60
2022/05/29 11:25:14;;;;;;;;;;;;;;;16.16;100.00;97707.47;5154742;27;20309;-60
2022/05/29 11:27:53;;;;;;;;;;;;;;;15.88;100.00;97704.28;5154763;27;19923;-60
2022/05/29 11:30:23;;;;;;;;;;;;;;;16.36;100.00;97708.09;5155320;27;19953;-60
2022/05/29 11:32:56;;;;;;;;;;;;;;;16.77;100.00;97712.06;5154688;27;19923;-60
2022/05/29 11:35:30;;;;;;;;;;;;;;;16.10;100.00;97709.25;5154848;27;20401;-60
2022/05/29 11:38:07;;;;;;;;;;;;;;;16.38;100.00;97721.47;5154541;27;19934;-60
2022/05/29 11:40:35;;;;;;;;;;;;;;;16.37;100.00;97708.88;5154881;27;19930;-60
2022/05/29 11:43:05;;;;;;;;;;;;;;;16.86;100.00;97705.84;5154535;27;19930;-60
2022/05/29 11:51:08;;;;;;;;;;;;;;;15.23;100.00;97754.03;5154394;27;19929;-60
2022/05/29 11:53:35;;;;;;;;;;;;;;;15.40;100.00;97799.00;5154386;27;19930;-60
2022/05/29 11:56:03;;;;;;;;;;;;;;;15.77;100.00;97793.00;5154257;27;20377;-60
2022/05/29 11:58:34;;;;;;;;;;;;;;;15.48;100.00;97761.72;5154176;27;20510;-60
2022/05/29 12:01:02;;;;;;;;;;;;;;;15.71;100.00;97763.56;5154111;27;19930;-60
2022/05/29 12:03:36;;;;;;;;;;;;;;;15.23;100.00;97781.66;5154585;27;19976;-60
2022/05/29 12:06:06;;;;;;;;;;;;;;;15.17;100.00;97849.63;5154293;27;20404;-60
2022/05/29 12:08:36;;;;;;;;;;;;;;;15.68;100.00;97883.22;5154013;27;20365;-60
2022/05/29 12:11:06;;;;;;;;;;;;;;;15.87;100.00;97923.81;5154310;27;20381;-60
2022/05/29 12:13:35;;;;;;;;;;;;;;;16.43;100.00;97851.72;5154037;27;20405;-60
2022/05/29 12:16:04;;;;;;;;;;;;;;;16.19;100.00;97814.44;5154109;27;19923;-60
2022/05/29 12:18:35;;;;;;;;;;;;;;;14.93;100.00;97877.31;5153959;27;20290;-60
2022/05/29 12:21:01;;;;;;;;;;;;;;;15.00;100.00;97948.16;5153997;27;19923;-60
2022/05/29 12:23:31;;;;;;;;;;;;;;;15.29;100.00;97976.75;5153969;27;19922;-60
2022/05/29 12:26:00;;;;;;;;;;;;;;;14.42;100.00;98135.84;5153980;27;19927;-60
2022/05/29 12:28:30;;;;;;;;;;;;;;;14.38;100.00;98178.47;5153003;27;20297;-60
2022/05/29 12:30:57;;;;;;;;;;;;;;;14.04;100.00;98224.16;5153704;27;20404;-60
2022/05/29 12:33:23;;;;;;;;;;;;;;;14.39;100.00;98200.09;5154040;27;19927;-60
2022/05/29 12:35:55;;;;;;;;;;;;;;;14.85;100.00;98167.59;5153539;27;19923;-60
2022/05/29 12:38:31;;;;;;;;;;;;;;;14.37;100.00;98139.09;5153853;27;20367;-60
2022/05/29 12:41:04;;;;;;;;;;;;;;;14.77;100.00;98150.38;5153301;27;19927;-60
2022/05/29 12:43:42;;;;;;;;;;;;;;;15.20;100.00;98042.00;5153499;27;19930;-60
2022/05/29 12:46:16;;;;;;;;;;;;;;;15.11;100.00;98012.19;5153380;27;19926;-60
2022/05/29 12:49:00;;;;;;;;;;;;;;;14.35;100.00;98067.03;5153274;27;19923;-60
2022/05/29 12:51:47;;;;;;;;;;;;;;;13.86;100.00;98254.66;5153445;27;19975;-60
2022/05/29 12:54:34;;;;;;;;;;;;;;;13.94;100.00;98430.94;5144829;27;19922;-60
2022/05/29 12:57:24;;;;;;;;;;;;;;;13.73;100.00;98638.44;5110818;27;19991;-60
2022/05/29 13:00:02;;;;;;;;;;;;;;;13.50;100.00;98818.69;5058999;27;20031;-60
2022/05/29 13:02:40;;;;;;;;;;;;;;;13.26;100.00;99020.41;5153402;27;20021;-60
2022/05/29 13:05:21;;;;;;;;;;;;;;;13.21;100.00;99172.16;5153600;27;19922;-60
2022/05/29 13:07:52;;;;;;;;;;;;;;;13.21;100.00;99246.50;5131278;27;19927;-60
2022/05/29 13:10:20;;;;;;;;;;;;;;;13.15;100.00;99266.09;5153299;27;20373;-61
2022/05/29 13:12:49;;;;;;;;;;;;;;;13.15;100.00;99279.84;5153228;27;19968;-60
2022/05/29 13:15:23;;;;;;;;;;;;;;;13.23;100.00;99275.22;5153238;27;19927;-60
2022/05/29 13:17:57;;;;;;;;;;;;;;;13.16;100.00;99270.44;5152976;27;19923;-61
2022/05/29 13:20:25;;;;;;;;;;;;;;;13.26;100.00;99269.00;5152956;27;20061;-60